createdAt,value
2018-12-23T01:08:20.720Z,80.08
2018-12-23T01:10:48.797Z,81.68
2018-12-23T01:16:15.352Z,80.93
2018-12-23T01:22:08.535Z,81.17
2018-12-23T01:44:16.005Z,81.10
2018-12-23T01:46:57.720Z,80.98
2018-12-23T02:07:14.727Z,80.54
2018-12-23T02:09:43.196Z,80.05
2018-12-23T02:20:24.259Z,80.10
2018-12-23T02:22:52.117Z,79.27
2018-12-23T02:25:21.833Z,79.32
2018-12-23T02:33:54.323Z,80.12
2018-12-23T02:36:23.648Z,79.25
2018-12-23T02:38:51.678Z,79.09
2018-12-23T02:41:19.908Z,78.98
2018-12-23T02:43:48.362Z,79.54
2018-12-23T02:46:16.228Z,79.16
2018-12-23T02:48:59.205Z,78.95
2018-12-23T02:51:27.441Z,79.15
2018-12-23T02:54:07.065Z,78.70
2018-12-23T03:00:24.931Z,78.63
2018-12-23T03:05:11.160Z,78.51
2018-12-23T03:07:39.441Z,78.72
2018-12-23T03:14:31.099Z,79.05
2018-12-23T03:16:59.244Z,79.48
2018-12-23T03:19:26.992Z,79.58
2018-12-23T03:21:55.187Z,78.92
2018-12-23T03:24:23.503Z,79.68
2018-12-23T03:26:51.635Z,79.65
2018-12-23T03:29:19.667Z,80.21
2018-12-23T03:31:47.551Z,79.37
2018-12-23T03:34:15.548Z,79.78
2018-12-23T03:36:43.329Z,80.42
2018-12-23T03:39:11.036Z,80.08
2018-12-23T03:41:38.760Z,80.30
2018-12-23T03:44:06.543Z,80.47
2018-12-23T03:46:34.260Z,80.17
2018-12-23T03:49:02.014Z,80.06
2018-12-23T03:51:29.811Z,80.28
2018-12-23T03:53:57.520Z,80.43
2018-12-23T03:56:25.240Z,80.10
2018-12-23T03:58:53.252Z,80.20
2018-12-23T04:01:20.972Z,79.87
2018-12-23T04:03:48.683Z,80.50
2018-12-23T04:06:24.477Z,80.45
2018-12-23T04:08:46.287Z,79.82
2018-12-23T04:11:14.134Z,80.60
2018-12-23T04:13:42.240Z,81.08
2018-12-23T04:16:10.068Z,80.43
2018-12-23T04:18:37.974Z,80.32
2018-12-23T04:21:05.771Z,79.94
2018-12-23T04:23:33.556Z,79.92
2018-12-23T04:26:01.316Z,80.06
2018-12-23T04:28:29.244Z,79.80
2018-12-23T04:30:57.006Z,79.93
2018-12-23T04:33:24.932Z,79.69
2018-12-23T04:35:52.819Z,79.59
2018-12-23T04:38:20.650Z,79.64
2018-12-23T04:40:48.471Z,79.69
2018-12-23T04:43:16.564Z,79.74
2018-12-23T04:45:44.584Z,79.75
2018-12-23T04:48:12.375Z,79.86
2018-12-23T04:50:40.179Z,79.66
2018-12-23T04:53:07.898Z,79.59
2018-12-23T04:55:35.666Z,79.25
2018-12-23T04:58:03.466Z,79.50
2018-12-23T05:00:31.187Z,79.46
2018-12-23T05:02:58.904Z,79.37
2018-12-23T05:05:26.835Z,79.47
2018-12-23T05:07:54.584Z,79.13
2018-12-23T05:10:22.320Z,79.44
2018-12-23T05:12:50.271Z,79.27
2018-12-23T05:15:18.023Z,79.04
2018-12-23T05:17:45.759Z,79.28
2018-12-23T05:20:14.031Z,79.05
2018-12-23T05:22:41.743Z,79.18
2018-12-23T05:25:09.539Z,78.97
2018-12-23T05:27:37.387Z,78.85
2018-12-23T05:30:05.212Z,79.19
2018-12-23T05:32:32.975Z,78.88
2018-12-23T05:35:05.890Z,79.36
2018-12-23T05:37:33.594Z,78.93
2018-12-23T05:40:01.303Z,79.20
2018-12-23T05:42:29.148Z,79.02
2018-12-23T05:44:57.143Z,79.16
2018-12-23T05:47:24.862Z,79.14
2018-12-23T05:49:52.598Z,79.06
2018-12-23T05:52:20.310Z,78.79
2018-12-23T05:54:48.191Z,78.03
2018-12-23T05:57:15.988Z,79.49
2018-12-23T05:59:43.731Z,79.23
2018-12-23T06:02:11.430Z,78.98
2018-12-23T06:04:39.377Z,79.14
2018-12-23T06:07:07.105Z,79.02
2018-12-23T06:09:34.807Z,78.99
2018-12-23T06:12:02.655Z,79.93
2018-12-23T06:14:35.557Z,80.03
2018-12-23T06:17:03.466Z,80.11
2018-12-23T06:19:31.295Z,79.97
2018-12-23T06:21:59.015Z,79.58
2018-12-23T06:24:27.067Z,79.06
2018-12-23T06:26:54.835Z,80.60
2018-12-23T06:29:22.579Z,78.99
2018-12-23T06:31:50.477Z,79.12
2018-12-23T06:34:18.224Z,79.32
2018-12-23T06:36:45.947Z,79.15
2018-12-23T06:39:13.826Z,78.78
2018-12-23T06:41:41.555Z,79.11
2018-12-23T06:44:09.259Z,78.63
2018-12-23T06:46:37.139Z,78.79
2018-12-23T06:49:04.853Z,79.23
2018-12-23T06:51:32.563Z,78.59
2018-12-23T06:54:00.403Z,78.63
2018-12-23T06:56:28.119Z,78.73
2018-12-23T06:58:55.850Z,78.88
2018-12-23T07:01:23.721Z,78.92
2018-12-23T07:03:56.641Z,79.16
2018-12-23T07:06:24.490Z,79.03
2018-12-23T07:08:52.206Z,79.18
2018-12-23T07:11:19.982Z,78.87
2018-12-23T07:13:47.955Z,78.48
2018-12-23T07:16:15.806Z,78.72
2018-12-23T07:18:43.547Z,79.21
2018-12-23T07:21:11.352Z,78.85
2018-12-23T07:23:39.375Z,79.08
2018-12-23T07:26:07.099Z,79.57
2018-12-23T07:28:34.891Z,79.65
2018-12-23T07:31:02.650Z,79.70
2018-12-23T07:33:30.438Z,79.42
2018-12-23T07:35:58.330Z,79.08
2018-12-23T07:38:26.039Z,78.71
2018-12-23T07:40:53.786Z,78.77
2018-12-23T07:43:21.840Z,78.33
2018-12-23T07:45:49.563Z,78.51
2018-12-23T07:48:17.290Z,78.53
2018-12-23T07:50:45.122Z,78.41
2018-12-23T07:53:13.182Z,78.74
2018-12-23T07:55:40.894Z,78.12
2018-12-23T07:58:08.759Z,77.67
2018-12-23T08:00:36.489Z,78.87
2018-12-23T08:03:04.256Z,78.38
2018-12-23T08:05:32.148Z,78.81
2018-12-23T08:07:59.878Z,78.47
2018-12-23T08:10:27.644Z,78.31
2018-12-23T08:12:55.590Z,78.70
2018-12-23T08:15:23.366Z,78.28
2018-12-23T08:17:51.195Z,77.99
2018-12-23T08:20:19.086Z,77.79
2018-12-23T08:22:46.803Z,78.12
2018-12-23T08:25:14.507Z,77.89
2018-12-23T08:27:42.266Z,78.22
2018-12-23T08:30:10.003Z,77.89
2018-12-23T08:32:37.726Z,78.81
2018-12-23T08:35:05.897Z,77.11
2018-12-23T08:37:33.614Z,77.81
2018-12-23T08:40:01.335Z,77.50
2018-12-23T08:42:29.218Z,77.41
2018-12-23T08:44:57.167Z,77.38
2018-12-23T08:47:24.894Z,76.83
2018-12-23T08:49:52.683Z,78.07
2018-12-23T08:52:20.440Z,77.62
2018-12-23T08:54:48.479Z,78.36
2018-12-23T08:57:16.343Z,78.68
2018-12-23T08:59:44.106Z,78.56
2018-12-23T09:02:11.826Z,78.48
2018-12-23T09:04:39.903Z,78.37
2018-12-23T09:07:07.610Z,78.54
2018-12-23T09:09:35.469Z,79.15
2018-12-23T09:12:03.267Z,79.11
2018-12-23T09:14:30.971Z,78.84
2018-12-23T09:16:58.727Z,79.93
2018-12-23T09:19:26.617Z,80.77
2018-12-23T09:21:54.410Z,80.04
2018-12-23T09:24:22.459Z,79.55
2018-12-23T09:26:50.275Z,79.64
2018-12-23T09:29:18.066Z,80.14
2018-12-23T09:31:45.809Z,79.97
2018-12-23T09:34:13.655Z,79.62
2018-12-23T09:36:41.390Z,80.34
2018-12-23T09:39:09.111Z,80.31
2018-12-23T09:41:36.991Z,79.47
2018-12-23T09:44:04.967Z,79.38
2018-12-23T09:46:32.676Z,79.14
2018-12-23T09:49:00.519Z,79.27
2018-12-23T09:51:28.233Z,80.47
2018-12-23T09:53:56.076Z,79.87
2018-12-23T09:56:23.967Z,80.24
2018-12-23T09:58:51.684Z,80.05
2018-12-23T10:01:19.406Z,79.79
2018-12-23T10:03:47.555Z,79.66
2018-12-23T10:06:15.259Z,79.44
2018-12-23T10:08:42.995Z,79.78
2018-12-23T10:11:10.772Z,79.53
2018-12-23T10:13:38.507Z,79.93
2018-12-23T10:16:06.231Z,79.97
2018-12-23T10:18:34.101Z,80.38
2018-12-23T10:21:01.959Z,79.60
2018-12-23T10:23:29.692Z,79.59
2018-12-23T10:25:57.459Z,79.77
2018-12-23T10:28:25.158Z,79.34
2018-12-23T10:30:54.194Z,79.54
2018-12-23T10:33:22.082Z,78.75
2018-12-23T10:35:49.826Z,78.59
2018-12-23T10:38:18.459Z,79.00
2018-12-23T10:40:46.655Z,78.60
2018-12-23T10:43:14.374Z,78.23
2018-12-23T10:45:42.103Z,78.33
2018-12-23T10:48:10.006Z,78.38
2018-12-23T10:50:37.742Z,77.81
2018-12-23T10:53:05.467Z,78.01
2018-12-23T10:55:33.727Z,78.23
2018-12-23T10:58:01.474Z,77.95
2018-12-23T11:00:29.171Z,78.29
2018-12-23T11:02:57.066Z,79.53
2018-12-23T11:05:24.894Z,79.56
2018-12-23T11:07:52.631Z,79.56
2018-12-23T11:10:20.576Z,79.78
2018-12-23T11:12:48.305Z,79.06
2018-12-23T11:15:16.259Z,79.45
2018-12-23T11:17:44.034Z,79.25
2018-12-23T11:20:11.735Z,79.16
2018-12-23T11:22:39.640Z,78.66
2018-12-23T11:25:07.778Z,78.34
2018-12-23T11:27:35.492Z,78.73
2018-12-23T11:30:03.355Z,79.09
2018-12-23T11:32:31.146Z,78.94
2018-12-23T11:34:59.695Z,78.61
2018-12-23T11:37:30.610Z,79.64
2018-12-23T11:40:01.727Z,79.18
2018-12-23T11:45:22.411Z,78.98
2018-12-23T11:47:53.268Z,78.39
2018-12-23T11:50:26.727Z,78.80
2018-12-23T11:53:00.747Z,78.79
2018-12-23T11:55:32.217Z,79.49
2018-12-23T11:58:05.499Z,79.15
2018-12-23T12:00:36.970Z,78.90
2018-12-23T12:03:10.106Z,79.41
2018-12-23T12:05:41.775Z,79.62
2018-12-23T12:08:13.382Z,79.40
2018-12-23T12:13:29.515Z,79.20
2018-12-23T12:16:00.534Z,80.31
2018-12-23T12:18:28.306Z,79.90
2018-12-23T12:20:56.098Z,80.02
2018-12-23T12:23:23.901Z,79.50
2018-12-23T12:25:51.614Z,80.70
2018-12-23T12:28:23.199Z,80.23
2018-12-23T12:30:52.927Z,80.28
2018-12-23T12:33:23.761Z,79.75
2018-12-23T12:35:56.947Z,80.84
2018-12-23T12:38:28.781Z,80.86
2018-12-23T12:40:59.798Z,79.97
2018-12-23T12:43:30.911Z,79.67
2018-12-23T12:46:02.035Z,79.76
2018-12-23T12:48:33.620Z,79.43
2018-12-23T12:51:04.930Z,79.56
2018-12-23T12:53:36.015Z,79.77
2018-12-23T12:56:11.807Z,79.18
2018-12-23T12:58:45.731Z,79.85
2018-12-23T13:01:20.211Z,79.56
2018-12-23T13:04:00.019Z,79.29
2018-12-23T13:06:38.005Z,78.87
2018-12-23T13:09:08.015Z,79.37
2018-12-23T13:11:38.353Z,79.08
2018-12-23T13:14:09.451Z,79.27
2018-12-23T13:16:40.755Z,80.22
2018-12-23T13:19:24.270Z,80.42
2018-12-23T13:21:52.034Z,80.39
2018-12-23T13:24:23.164Z,80.05
2018-12-23T13:26:58.339Z,79.28
2018-12-23T13:29:27.883Z,79.22
2018-12-23T13:32:01.219Z,79.44
2018-12-23T13:34:28.991Z,79.02
2018-12-23T13:36:56.808Z,78.63
2018-12-23T13:39:30.677Z,80.23
2018-12-23T13:42:07.467Z,80.01
2018-12-23T13:44:42.995Z,79.87
2018-12-23T13:47:16.349Z,79.91
2018-12-23T13:57:30.878Z,79.71
2018-12-23T14:00:14.678Z,79.18
2018-12-23T14:02:46.379Z,79.95
2018-12-23T14:05:24.135Z,79.58
2018-12-23T14:08:07.192Z,79.53
2018-12-23T14:10:40.875Z,79.87
2018-12-23T14:13:12.151Z,79.91
2018-12-23T14:15:45.350Z,80.69
2018-12-23T14:18:13.234Z,79.56
2018-12-23T14:20:41.095Z,79.24
2018-12-23T14:23:08.860Z,79.52
2018-12-23T14:25:40.677Z,79.80
2018-12-23T14:30:54.182Z,79.48
2018-12-23T14:33:21.943Z,78.63
2018-12-23T14:35:49.705Z,78.98
2018-12-23T14:38:17.595Z,78.52
2018-12-23T14:40:49.248Z,78.73
2018-12-23T14:46:06.230Z,79.15
2018-12-23T14:48:37.185Z,78.57
2018-12-23T14:51:08.898Z,78.84
2018-12-23T14:53:40.495Z,79.40
2018-12-23T14:56:13.846Z,79.86
2018-12-23T14:58:45.336Z,80.09
2018-12-23T15:01:18.586Z,79.96
2018-12-23T15:03:50.027Z,79.44
2018-12-23T15:06:24.006Z,80.49
2018-12-23T15:11:50.178Z,79.41
2018-12-23T15:14:21.759Z,78.90
2018-12-23T15:16:52.891Z,79.51
2018-12-23T15:19:26.010Z,79.34
2018-12-23T15:24:47.627Z,79.07
2018-12-23T15:27:15.479Z,79.59
2018-12-23T15:29:46.742Z,79.25
2018-12-23T15:32:14.714Z,79.05
2018-12-23T15:34:48.230Z,79.37
2018-12-23T15:37:31.996Z,78.91
2018-12-23T15:39:59.743Z,78.73
2018-12-23T15:42:30.549Z,78.73
2018-12-23T15:44:58.553Z,79.56
2018-12-23T15:47:26.843Z,79.58
2018-12-23T15:49:54.666Z,78.76
2018-12-23T15:52:22.635Z,78.61
2018-12-23T15:54:50.427Z,78.90
2018-12-23T15:57:18.239Z,79.72
2018-12-23T15:59:46.028Z,79.19
2018-12-23T16:02:13.798Z,79.39
2018-12-23T16:04:41.556Z,79.46
2018-12-23T16:07:09.412Z,79.91
2018-12-23T16:09:37.221Z,78.80
2018-12-23T16:12:05.977Z,78.55
2018-12-23T16:14:33.787Z,79.42
2018-12-23T16:17:01.573Z,78.01
2018-12-23T16:19:40.713Z,78.83
2018-12-23T16:22:13.995Z,78.64
2018-12-23T16:24:47.012Z,79.10
2018-12-23T16:27:14.885Z,79.08
2018-12-23T16:29:42.974Z,80.18
2018-12-23T16:32:10.886Z,79.44
2018-12-23T16:34:42.418Z,78.76
2018-12-23T16:39:59.588Z,78.75
2018-12-23T16:42:25.413Z,79.35
2018-12-23T16:44:53.159Z,79.51
2018-12-23T16:47:20.939Z,79.47
2018-12-23T16:49:48.689Z,78.83
2018-12-23T16:52:22.038Z,78.38
2018-12-23T16:54:53.405Z,78.72
2018-12-23T16:57:25.114Z,78.76
2018-12-23T16:59:58.619Z,78.50
2018-12-23T17:02:34.419Z,78.71
2018-12-23T17:05:08.454Z,78.47
2018-12-23T17:07:40.355Z,78.05
2018-12-23T17:10:13.802Z,78.72
2018-12-23T17:12:45.379Z,79.10
2018-12-23T17:15:18.711Z,77.88
2018-12-23T17:17:50.529Z,78.51
2018-12-23T17:20:18.347Z,78.51
2018-12-23T17:25:39.855Z,78.00
2018-12-23T17:28:07.766Z,78.39
2018-12-23T17:30:41.007Z,78.50
2018-12-23T17:33:08.934Z,78.19
2018-12-23T17:35:36.759Z,77.99
2018-12-23T17:38:04.600Z,78.80
2018-12-23T17:40:32.406Z,78.78
2018-12-23T17:43:00.147Z,78.99
2018-12-23T17:45:28.058Z,79.33
2018-12-23T17:47:55.868Z,78.09
2018-12-23T17:50:23.650Z,78.98
2018-12-23T17:52:51.578Z,78.52
2018-12-23T17:55:19.378Z,78.21
2018-12-23T17:57:47.099Z,77.40
2018-12-23T18:00:14.987Z,77.37
2018-12-23T18:02:42.732Z,76.93
2018-12-23T18:05:10.463Z,76.38
2018-12-23T18:07:38.441Z,76.21
2018-12-23T18:10:06.740Z,75.60
2018-12-23T18:12:34.475Z,75.84
2018-12-23T18:15:02.666Z,77.60
2018-12-23T18:17:30.558Z,75.42
2018-12-23T18:19:58.390Z,76.18
2018-12-23T18:22:26.191Z,75.86
2018-12-23T18:24:54.252Z,75.31
2018-12-23T18:27:22.007Z,75.61
2018-12-23T18:29:49.919Z,76.10
2018-12-23T18:32:18.165Z,76.03
2018-12-23T18:34:51.346Z,75.36
2018-12-23T18:37:20.214Z,75.98
2018-12-23T18:39:48.079Z,76.07
2018-12-23T18:42:15.974Z,78.14
2018-12-23T18:44:48.902Z,77.41
2018-12-23T18:47:16.691Z,76.28
2018-12-23T18:49:45.052Z,76.29
2018-12-23T18:52:14.336Z,76.16
2018-12-23T18:54:42.377Z,77.47
2018-12-23T18:57:10.906Z,77.75
2018-12-23T18:59:40.775Z,77.81
2018-12-23T19:02:10.002Z,78.62
2018-12-23T19:04:37.823Z,76.83
2018-12-23T19:07:07.274Z,78.52
2018-12-23T19:09:44.583Z,78.23
2018-12-23T19:14:22.698Z,77.53
2018-12-23T19:16:55.035Z,77.58
2018-12-23T19:19:32.239Z,77.48
2018-12-23T19:22:06.298Z,77.92
2018-12-23T19:24:41.547Z,77.86
2018-12-23T19:27:15.469Z,77.94
2018-12-23T19:30:20.515Z,79.09
2018-12-23T19:32:53.822Z,78.81
2018-12-23T19:36:31.230Z,79.17
2018-12-23T19:39:04.917Z,78.89
2018-12-23T19:41:42.866Z,79.48
2018-12-23T19:46:21.204Z,79.67
2018-12-23T19:48:54.322Z,78.92
2018-12-23T19:51:27.754Z,79.32
2018-12-23T19:54:04.772Z,79.80
2018-12-23T19:58:39.238Z,79.66
2018-12-23T20:01:10.998Z,79.63
2018-12-23T20:03:47.328Z,79.18
2018-12-23T20:06:35.441Z,80.66
2018-12-23T20:09:12.583Z,79.72
2018-12-23T20:11:47.659Z,79.68
2018-12-23T20:14:20.991Z,78.95
2018-12-23T20:16:54.119Z,78.98
2018-12-23T20:19:37.206Z,79.62
2018-12-23T20:22:27.284Z,79.56
2018-12-23T20:25:39.423Z,79.05
2018-12-23T20:28:44.515Z,79.84
2018-12-23T20:31:52.236Z,79.25
2018-12-23T20:34:32.426Z,79.18
2018-12-23T20:37:06.247Z,79.80
2018-12-23T20:39:39.510Z,79.12
2018-12-23T20:42:22.514Z,79.43
2018-12-23T20:44:56.646Z,78.63
2018-12-23T20:47:37.781Z,78.86
2018-12-23T20:50:09.921Z,79.70
2018-12-23T20:52:42.382Z,79.41
2018-12-23T20:55:19.670Z,79.34
2018-12-23T20:58:10.955Z,79.08
2018-12-23T21:00:49.926Z,79.02
2018-12-23T21:03:25.236Z,79.22
2018-12-23T21:08:03.689Z,79.73
2018-12-23T21:10:35.679Z,78.60
2018-12-23T21:13:11.301Z,78.85
2018-12-23T21:15:49.594Z,79.17
2018-12-23T21:18:24.720Z,79.98
2018-12-23T21:20:58.059Z,79.58
2018-12-23T21:24:01.190Z,79.56
2018-12-23T21:26:45.350Z,79.31
2018-12-23T21:29:20.295Z,79.61
2018-12-23T21:31:59.656Z,79.41
2018-12-23T21:34:47.626Z,79.04
2018-12-23T21:37:38.178Z,79.70
2018-12-23T21:42:13.391Z,79.32
2018-12-23T21:44:53.438Z,79.99
2018-12-23T21:49:31.711Z,80.28
2018-12-23T21:52:05.071Z,80.05
2018-12-23T21:54:38.055Z,80.49
2018-12-23T21:57:11.360Z,79.83
2018-12-23T21:59:45.119Z,79.71
2018-12-23T22:02:49.331Z,80.37
2018-12-23T22:05:25.419Z,79.03
2018-12-23T22:10:01.655Z,80.25
2018-12-23T22:12:40.762Z,79.71
2018-12-23T22:15:08.891Z,79.94
2018-12-23T22:17:36.636Z,79.92
2018-12-23T22:20:04.587Z,79.41
2018-12-23T22:22:32.430Z,80.07
2018-12-23T22:25:00.407Z,80.17
2018-12-23T22:27:28.108Z,79.96
2018-12-23T22:29:55.883Z,79.24
2018-12-23T22:32:23.595Z,79.59
2018-12-23T22:34:51.554Z,79.32
2018-12-23T22:37:19.517Z,79.27
2018-12-23T22:39:47.263Z,80.31
2018-12-23T22:42:14.976Z,80.65
2018-12-23T22:44:42.905Z,80.23
2018-12-23T22:47:10.595Z,80.58
2018-12-23T22:49:38.325Z,80.94
2018-12-23T22:52:06.180Z,80.51
2018-12-23T22:54:33.922Z,80.45
2018-12-23T22:57:01.650Z,80.80
2018-12-23T22:59:29.419Z,80.31
2018-12-23T23:01:57.142Z,80.61
2018-12-23T23:04:24.874Z,79.89
2018-12-23T23:06:52.743Z,80.51
2018-12-23T23:09:20.522Z,79.87
2018-12-23T23:11:49.907Z,79.29
2018-12-23T23:14:18.315Z,79.03
2018-12-23T23:16:46.063Z,79.06
2018-12-23T23:19:13.799Z,79.53
2018-12-23T23:21:41.678Z,79.65
2018-12-23T23:24:09.422Z,79.64
2018-12-23T23:26:37.167Z,79.14
2018-12-23T23:29:04.939Z,79.43
2018-12-23T23:31:32.664Z,78.76
2018-12-23T23:34:00.548Z,79.32
2018-12-23T23:36:28.378Z,78.70
2018-12-23T23:38:56.168Z,78.81
2018-12-23T23:41:23.903Z,79.04
2018-12-23T23:43:52.316Z,78.58
2018-12-23T23:46:20.211Z,79.18
2018-12-23T23:48:48.415Z,78.87
2018-12-23T23:51:16.364Z,79.04
2018-12-23T23:53:44.250Z,79.38
2018-12-23T23:56:13.588Z,79.26
2018-12-23T23:58:41.475Z,79.64
